createdAt,value
2017-06-20T00:00:51.300Z,22.20
2017-06-20T00:03:18.832Z,22.10
2017-06-20T00:05:46.673Z,22.10
2017-06-20T00:08:14.202Z,22.10
2017-06-20T00:10:41.721Z,22.00
2017-06-20T00:13:09.589Z,22.00
2017-06-20T00:15:37.096Z,21.90
2017-06-20T00:18:04.624Z,21.90
2017-06-20T00:20:33.241Z,21.80
2017-06-20T00:23:00.780Z,21.70
2017-06-20T00:25:28.319Z,21.70
2017-06-20T00:27:56.953Z,21.60
2017-06-20T00:30:24.475Z,21.60
2017-06-20T00:32:52.765Z,21.50
2017-06-20T00:35:20.684Z,21.50
2017-06-20T00:37:48.201Z,21.50
2017-06-20T00:40:15.742Z,21.40
2017-06-20T00:42:44.365Z,21.30
2017-06-20T00:45:11.895Z,21.30
2017-06-20T00:47:39.418Z,21.30
2017-06-20T00:50:07.249Z,21.30
2017-06-20T00:52:34.788Z,21.20
2017-06-20T00:55:02.340Z,21.20
2017-06-20T00:57:30.253Z,21.10
2017-06-20T00:59:57.788Z,21.10
2017-06-20T01:02:25.345Z,21.00
2017-06-20T01:04:53.227Z,21.00
2017-06-20T01:07:20.744Z,21.00
2017-06-20T01:09:49.039Z,20.90
2017-06-20T01:12:16.858Z,20.90
2017-06-20T01:14:44.388Z,20.90
2017-06-20T01:17:11.952Z,20.80
2017-06-20T01:19:39.822Z,20.80
2017-06-20T01:22:07.353Z,20.80
2017-06-20T01:24:34.863Z,20.80
2017-06-20T01:27:02.719Z,20.70
2017-06-20T01:29:30.240Z,20.70
2017-06-20T01:31:57.776Z,20.70
2017-06-20T01:34:26.352Z,20.60
2017-06-20T01:36:53.874Z,20.60
2017-06-20T01:39:21.412Z,20.50
2017-06-20T01:41:49.326Z,20.50
2017-06-20T01:44:16.839Z,20.50
2017-06-20T01:46:44.361Z,20.40
2017-06-20T01:49:13.018Z,20.40
2017-06-20T01:51:40.548Z,20.40
2017-06-20T01:54:08.077Z,20.40
2017-06-20T01:56:35.949Z,20.40
2017-06-20T01:59:04.251Z,20.40
2017-06-20T02:01:31.792Z,20.30
2017-06-20T02:03:59.620Z,20.30
2017-06-20T02:06:27.147Z,20.30
2017-06-20T02:08:54.663Z,20.30
2017-06-20T02:11:22.485Z,20.30
2017-06-20T02:13:50.000Z,20.20
2017-06-20T02:16:18.303Z,20.10
2017-06-20T02:18:46.198Z,20.10
2017-06-20T02:21:13.738Z,20.10
2017-06-20T02:23:41.253Z,20.10
2017-06-20T02:26:09.854Z,20.00
2017-06-20T02:28:37.466Z,20.00
2017-06-20T02:31:05.000Z,20.00
2017-06-20T02:33:32.828Z,20.00
2017-06-20T02:36:01.127Z,20.00
2017-06-20T02:38:28.656Z,19.90
2017-06-20T02:40:56.504Z,19.90
2017-06-20T02:43:24.023Z,20.00
2017-06-20T02:45:51.536Z,20.00
2017-06-20T02:48:19.396Z,19.90
2017-06-20T02:50:46.924Z,19.80
2017-06-20T02:53:14.465Z,19.80
2017-06-20T02:55:42.368Z,19.80
2017-06-20T02:58:09.911Z,19.70
2017-06-20T03:00:37.438Z,19.70
2017-06-20T03:03:06.068Z,19.70
2017-06-20T03:05:33.592Z,19.60
2017-06-20T03:08:01.116Z,19.60
2017-06-20T03:10:28.926Z,19.60
2017-06-20T03:12:56.458Z,19.60
2017-06-20T03:15:24.742Z,19.50
2017-06-20T03:17:53.344Z,19.50
2017-06-20T03:20:20.869Z,19.50
2017-06-20T03:22:48.390Z,19.50
2017-06-20T03:25:16.257Z,19.40
2017-06-20T03:27:43.776Z,19.40
2017-06-20T03:30:11.301Z,19.40
2017-06-20T03:32:39.123Z,19.40
2017-06-20T03:35:07.540Z,19.40
2017-06-20T03:37:35.061Z,19.40
2017-06-20T03:40:03.876Z,19.40
2017-06-20T03:42:31.435Z,19.40
2017-06-20T03:44:58.982Z,19.40
2017-06-20T03:47:26.871Z,19.40
2017-06-20T03:49:54.408Z,19.40
2017-06-20T03:52:21.944Z,19.40
2017-06-20T03:54:49.758Z,19.40
2017-06-20T03:57:17.295Z,19.50
2017-06-20T03:59:44.821Z,19.50
2017-06-20T04:02:13.412Z,19.60
2017-06-20T04:04:41.708Z,19.60
2017-06-20T04:07:09.247Z,19.60
2017-06-20T04:09:37.842Z,19.70
2017-06-20T04:12:06.131Z,19.80
2017-06-20T04:14:33.659Z,19.70
2017-06-20T04:17:01.453Z,19.80
2017-06-20T04:19:28.976Z,19.90
2017-06-20T04:21:56.534Z,20.00
2017-06-20T04:24:24.384Z,20.10
2017-06-20T04:26:51.908Z,20.10
2017-06-20T04:29:19.432Z,20.20
2017-06-20T04:31:48.087Z,20.40
2017-06-20T04:34:15.643Z,20.40
2017-06-20T04:36:43.294Z,20.50
2017-06-20T04:39:11.162Z,20.60
2017-06-20T04:41:38.690Z,20.70
2017-06-20T04:44:06.230Z,20.80
2017-06-20T04:46:34.778Z,21.00
2017-06-20T04:49:02.324Z,21.00
2017-06-20T04:51:29.855Z,21.10
2017-06-20T04:53:57.650Z,21.20
2017-06-20T04:56:25.188Z,21.20
2017-06-20T04:58:52.725Z,21.30
2017-06-20T05:01:21.338Z,21.50
2017-06-20T05:03:48.868Z,21.50
2017-06-20T05:06:17.169Z,21.60
2017-06-20T05:08:44.995Z,21.60
2017-06-20T05:11:12.536Z,21.70
2017-06-20T05:13:40.062Z,21.80
2017-06-20T05:16:07.906Z,21.90
2017-06-20T05:18:35.470Z,22.00
2017-06-20T05:21:03.761Z,22.20
2017-06-20T05:23:31.681Z,22.20
2017-06-20T05:25:59.226Z,22.20
2017-06-20T05:28:26.744Z,22.30
2017-06-20T05:30:54.646Z,22.40
2017-06-20T05:33:22.187Z,22.60
2017-06-20T05:35:49.733Z,22.60
2017-06-20T05:38:17.630Z,22.70
2017-06-20T05:40:45.173Z,22.80
2017-06-20T05:43:12.706Z,22.90
2017-06-20T05:45:41.438Z,23.00
2017-06-20T05:48:21.797Z,23.00
2017-06-20T05:50:49.665Z,23.10
2017-06-20T05:53:17.190Z,23.20
2017-06-20T05:55:47.743Z,23.20
2017-06-20T05:58:18.802Z,23.40
2017-06-20T06:00:47.754Z,23.50
2017-06-20T06:03:18.620Z,23.60
2017-06-20T06:05:46.456Z,23.70
2017-06-20T06:08:13.992Z,23.70
2017-06-20T06:10:41.509Z,23.80
2017-06-20T06:13:09.441Z,23.90
2017-06-20T06:15:37.731Z,24.10
2017-06-20T06:18:05.268Z,24.10
2017-06-20T06:20:33.094Z,24.20
2017-06-20T06:23:00.621Z,24.30
2017-06-20T06:25:31.194Z,24.40
2017-06-20T06:27:59.016Z,24.50
2017-06-20T06:30:26.544Z,24.60
2017-06-20T06:32:54.074Z,24.70
2017-06-20T06:35:22.036Z,24.90
2017-06-20T06:37:49.562Z,25.00
2017-06-20T06:40:17.093Z,25.10
2017-06-20T06:42:44.914Z,25.20
2017-06-20T06:45:12.440Z,25.30
2017-06-20T06:47:39.972Z,25.40
2017-06-20T06:50:07.792Z,25.50
2017-06-20T06:52:35.315Z,25.60
2017-06-20T06:55:03.623Z,25.80
2017-06-20T06:57:31.503Z,25.80
2017-06-20T06:59:59.047Z,25.90
2017-06-20T07:02:26.566Z,26.00
2017-06-20T07:04:54.407Z,26.20
2017-06-20T07:07:21.953Z,26.30
2017-06-20T07:09:49.473Z,26.40
2017-06-20T07:12:18.108Z,26.60
2017-06-20T07:14:45.633Z,26.50
2017-06-20T07:17:13.151Z,26.70
2017-06-20T07:19:41.005Z,26.80
2017-06-20T07:22:08.538Z,26.90
2017-06-20T07:24:36.051Z,27.00
2017-06-20T07:27:04.000Z,27.10
2017-06-20T07:29:31.542Z,27.20
2017-06-20T07:31:59.092Z,27.30
2017-06-20T07:34:26.889Z,27.40
2017-06-20T07:36:54.409Z,27.40
2017-06-20T07:39:21.931Z,27.50
2017-06-20T07:41:49.757Z,27.60
2017-06-20T07:44:17.294Z,27.70
2017-06-20T07:46:44.882Z,27.80
2017-06-20T07:49:12.701Z,27.90
2017-06-20T07:51:40.997Z,28.10
2017-06-20T07:54:08.507Z,28.10
2017-06-20T07:56:36.347Z,28.20
2017-06-20T07:59:03.896Z,28.30
2017-06-20T08:01:31.430Z,28.40
2017-06-20T08:03:59.282Z,28.40
2017-06-20T08:06:26.805Z,28.50
2017-06-20T08:08:54.334Z,28.60
2017-06-20T08:11:22.140Z,28.70
2017-06-20T08:13:49.679Z,28.80
2017-06-20T08:16:17.192Z,28.90
2017-06-20T08:18:45.780Z,29.10
2017-06-20T08:21:18.903Z,29.00
2017-06-20T08:23:46.722Z,29.20
2017-06-20T08:26:14.248Z,29.30
2017-06-20T08:28:41.782Z,29.40
2017-06-20T08:31:09.595Z,29.50
2017-06-20T08:33:37.118Z,29.60
2017-06-20T08:36:05.408Z,29.70
2017-06-20T08:38:33.225Z,29.80
2017-06-20T08:41:01.552Z,29.90
2017-06-20T08:43:29.088Z,29.90
2017-06-20T08:45:56.911Z,30.00
2017-06-20T08:48:24.436Z,30.00
2017-06-20T08:50:51.977Z,30.20
2017-06-20T08:53:19.789Z,30.20
2017-06-20T08:55:47.325Z,30.20
2017-06-20T08:58:14.857Z,30.20
2017-06-20T09:00:42.749Z,30.30
2017-06-20T09:03:10.275Z,30.30
2017-06-20T09:05:38.555Z,30.40
2017-06-20T09:08:06.457Z,30.40
2017-06-20T09:10:33.988Z,30.50
2017-06-20T09:13:01.506Z,30.60
2017-06-20T09:15:29.361Z,30.60
2017-06-20T09:17:56.902Z,30.70
2017-06-20T09:20:24.434Z,30.70
2017-06-20T09:22:52.465Z,30.80
2017-06-20T09:25:19.991Z,30.90
2017-06-20T09:27:47.531Z,30.90
2017-06-20T09:30:15.435Z,30.90
2017-06-20T09:32:42.962Z,30.90
2017-06-20T09:35:10.512Z,31.00
2017-06-20T09:37:38.437Z,31.00
2017-06-20T09:40:05.978Z,31.10
2017-06-20T09:42:33.546Z,31.10
2017-06-20T09:45:01.354Z,31.20
2017-06-20T09:47:29.643Z,31.40
2017-06-20T09:49:57.176Z,31.40
2017-06-20T09:52:24.993Z,31.50
2017-06-20T09:54:52.511Z,31.60
2017-06-20T09:57:20.030Z,31.70
2017-06-20T09:59:47.829Z,31.60
2017-06-20T10:02:15.351Z,31.70
2017-06-20T10:04:42.893Z,31.70
2017-06-20T10:07:10.693Z,31.70
2017-06-20T10:09:38.221Z,31.70
2017-06-20T10:12:05.745Z,31.80
2017-06-20T10:14:33.690Z,32.00
2017-06-20T10:17:01.211Z,32.00
2017-06-20T10:19:28.762Z,32.10
2017-06-20T10:21:56.771Z,32.10
2017-06-20T10:24:24.294Z,32.10
2017-06-20T10:26:51.826Z,32.10
2017-06-20T10:29:20.472Z,32.30
2017-06-20T10:31:47.988Z,32.20
2017-06-20T10:34:16.291Z,32.40
2017-06-20T10:36:44.149Z,32.30
2017-06-20T10:39:11.703Z,32.50
2017-06-20T10:41:39.224Z,32.50
2017-06-20T10:44:07.062Z,32.60
2017-06-20T10:46:34.583Z,32.60
2017-06-20T10:49:02.117Z,32.70
2017-06-20T10:51:30.040Z,32.60
2017-06-20T10:53:57.590Z,32.70
2017-06-20T10:56:25.271Z,32.80
2017-06-20T10:58:53.109Z,32.80
2017-06-20T11:01:20.658Z,32.90
2017-06-20T11:03:48.950Z,33.10
2017-06-20T11:06:16.859Z,33.00
2017-06-20T11:08:44.390Z,33.10
2017-06-20T11:11:11.968Z,33.10
2017-06-20T11:13:39.827Z,33.10
2017-06-20T11:16:07.366Z,33.20
2017-06-20T11:18:34.921Z,33.20
2017-06-20T11:21:02.925Z,33.20
2017-06-20T11:23:30.463Z,33.30
2017-06-20T11:25:57.997Z,33.30
2017-06-20T11:28:26.588Z,33.30
2017-06-20T11:30:54.877Z,33.50
2017-06-20T11:33:22.405Z,33.50
2017-06-20T11:35:50.351Z,34.00
2017-06-20T11:38:17.887Z,34.50
2017-06-20T11:40:45.420Z,35.00
2017-06-20T11:43:13.254Z,35.60
2017-06-20T11:45:40.814Z,36.30
2017-06-20T11:48:08.343Z,37.10
2017-06-20T11:50:36.222Z,37.60
2017-06-20T11:53:03.762Z,37.90
2017-06-20T11:55:31.288Z,38.10
2017-06-20T11:57:59.105Z,38.40
2017-06-20T12:00:26.641Z,38.60
2017-06-20T12:02:54.178Z,38.90
2017-06-20T12:05:22.797Z,39.30
2017-06-20T12:07:50.333Z,39.30
2017-06-20T12:10:17.877Z,39.80
2017-06-20T12:12:46.505Z,41.00
2017-06-20T12:15:14.063Z,40.90
2017-06-20T12:17:41.594Z,41.30
2017-06-20T12:20:09.614Z,41.80
2017-06-20T12:22:37.154Z,42.30
2017-06-20T12:25:04.752Z,42.50
2017-06-20T12:27:32.569Z,42.50
2017-06-20T12:30:00.103Z,42.30
2017-06-20T12:32:28.385Z,42.60
2017-06-20T12:34:56.990Z,42.20
2017-06-20T12:37:24.529Z,42.30
2017-06-20T12:39:52.817Z,42.70
2017-06-20T12:42:20.713Z,42.60
2017-06-20T12:44:48.241Z,43.10
2017-06-20T12:47:15.777Z,43.40
2017-06-20T12:49:44.417Z,43.70
2017-06-20T12:52:11.934Z,43.70
2017-06-20T12:54:40.238Z,44.40
2017-06-20T12:57:08.119Z,44.40
2017-06-20T12:59:35.641Z,44.40
2017-06-20T13:02:03.936Z,44.40
2017-06-20T13:04:31.839Z,44.40
2017-06-20T13:06:59.379Z,44.40
2017-06-20T13:09:26.909Z,44.50
2017-06-20T13:11:55.534Z,44.70
2017-06-20T13:14:23.053Z,44.70
2017-06-20T13:16:51.364Z,44.90
2017-06-20T13:19:19.249Z,44.80
2017-06-20T13:21:46.806Z,44.70
2017-06-20T13:24:14.327Z,44.50
2017-06-20T13:26:42.237Z,44.60
2017-06-20T13:29:09.754Z,45.00
2017-06-20T13:31:37.288Z,45.10
2017-06-20T13:34:05.094Z,45.10
2017-06-20T13:36:32.632Z,45.20
2017-06-20T13:39:02.937Z,45.10
2017-06-20T13:41:30.775Z,45.10
2017-06-20T13:43:58.345Z,45.50
2017-06-20T13:46:25.886Z,45.90
2017-06-20T13:48:53.760Z,46.00
2017-06-20T13:51:24.708Z,45.80
2017-06-20T13:53:54.896Z,45.40
2017-06-20T13:56:22.680Z,44.50
2017-06-20T13:58:50.214Z,43.60
2017-06-20T14:01:17.742Z,42.80
2017-06-20T14:03:45.713Z,42.60
2017-06-20T14:06:13.261Z,42.30
2017-06-20T14:08:40.789Z,42.60
2017-06-20T14:11:08.613Z,43.00
2017-06-20T14:13:36.916Z,44.00
2017-06-20T14:16:04.473Z,44.00
2017-06-20T14:18:32.270Z,44.50
2017-06-20T14:20:59.812Z,44.70
2017-06-20T14:23:27.333Z,44.80
2017-06-20T14:25:55.965Z,44.00
2017-06-20T14:28:23.528Z,44.00
2017-06-20T14:30:51.053Z,43.90
2017-06-20T14:33:19.686Z,43.80
2017-06-20T14:35:47.231Z,43.80
2017-06-20T14:38:14.761Z,44.00
2017-06-20T14:40:43.343Z,44.00
2017-06-20T14:43:10.911Z,43.90
2017-06-20T14:45:38.487Z,43.70
2017-06-20T14:48:06.376Z,43.70
2017-06-20T14:50:33.917Z,43.90
2017-06-20T14:53:01.436Z,43.80
2017-06-20T14:55:30.043Z,44.20
2017-06-20T14:57:57.564Z,44.20
2017-06-20T15:00:25.094Z,44.20
2017-06-20T15:02:53.061Z,44.20
2017-06-20T15:05:20.597Z,44.20
2017-06-20T15:07:48.133Z,44.10
2017-06-20T15:10:16.825Z,44.00
2017-06-20T15:12:45.141Z,44.10
2017-06-20T15:15:12.686Z,44.10
2017-06-20T15:17:40.510Z,44.00
2017-06-20T15:20:08.045Z,44.00
2017-06-20T15:22:35.596Z,44.00
2017-06-20T15:25:03.466Z,43.70
2017-06-20T15:27:31.029Z,43.00
2017-06-20T15:29:58.569Z,42.30
2017-06-20T15:32:27.271Z,42.00
2017-06-20T15:34:54.835Z,41.20
2017-06-20T15:37:22.384Z,40.90
2017-06-20T15:39:50.220Z,41.30
2017-06-20T15:42:18.513Z,42.00
2017-06-20T15:44:46.047Z,42.00
2017-06-20T15:47:13.966Z,42.30
2017-06-20T15:49:41.501Z,42.40
2017-06-20T15:52:09.038Z,42.60
2017-06-20T15:54:37.679Z,43.20
2017-06-20T15:57:05.208Z,43.20
2017-06-20T15:59:32.806Z,43.30
2017-06-20T16:02:00.581Z,43.40
2017-06-20T16:04:28.142Z,43.20
2017-06-20T16:06:55.682Z,42.90
2017-06-20T16:09:23.554Z,42.00
2017-06-20T16:11:51.077Z,41.20
2017-06-20T16:14:18.604Z,40.50
2017-06-20T16:16:46.434Z,40.00
2017-06-20T16:19:13.964Z,40.00
2017-06-20T16:21:41.537Z,40.20
2017-06-20T16:24:09.426Z,40.40
2017-06-20T16:26:36.962Z,40.50
2017-06-20T16:29:04.488Z,40.70
2017-06-20T16:31:32.325Z,40.90
2017-06-20T16:33:59.932Z,41.00
2017-06-20T16:36:27.471Z,41.10
2017-06-20T16:38:55.360Z,41.10
2017-06-20T16:41:23.658Z,40.70
2017-06-20T16:43:51.237Z,40.70
2017-06-20T16:46:19.181Z,40.50
2017-06-20T16:48:46.716Z,40.20
2017-06-20T16:51:14.251Z,40.10
2017-06-20T16:53:42.033Z,40.00
2017-06-20T16:56:09.561Z,39.90
2017-06-20T16:58:37.105Z,39.90
2017-06-20T17:01:05.005Z,39.90
2017-06-20T17:03:32.554Z,40.10
2017-06-20T17:06:00.076Z,40.30
2017-06-20T17:08:28.006Z,40.40
2017-06-20T17:10:55.540Z,40.50
2017-06-20T17:13:23.074Z,40.40
2017-06-20T17:15:50.974Z,40.20
2017-06-20T17:18:18.518Z,40.10
2017-06-20T17:20:46.056Z,39.80
2017-06-20T17:23:13.957Z,39.20
2017-06-20T17:25:41.493Z,38.60
2017-06-20T17:28:09.034Z,38.00
2017-06-20T17:30:37.645Z,37.20
2017-06-20T17:33:06.034Z,37.10
2017-06-20T17:35:33.547Z,36.80
2017-06-20T17:38:01.472Z,36.50
2017-06-20T17:40:29.014Z,36.20
2017-06-20T17:42:56.555Z,35.90
2017-06-20T17:45:24.465Z,35.70
2017-06-20T17:47:53.457Z,35.60
2017-06-20T17:53:26.494Z,35.30
2017-06-20T18:01:29.307Z,35.00
2017-06-20T18:04:05.352Z,34.70
2017-06-20T18:06:32.912Z,34.40
2017-06-20T18:09:08.376Z,34.10
2017-06-20T18:11:38.176Z,34.00
2017-06-20T18:16:47.013Z,33.80
2017-06-20T18:19:18.925Z,33.60
2017-06-20T18:21:47.449Z,33.40
2017-06-20T18:24:15.018Z,33.20
2017-06-20T18:26:42.899Z,33.00
2017-06-20T18:29:10.416Z,32.90
2017-06-20T18:31:37.940Z,32.70
2017-06-20T18:34:05.898Z,32.60
2017-06-20T18:36:33.434Z,32.40
2017-06-20T18:39:00.972Z,32.20
2017-06-20T18:41:28.913Z,32.10
2017-06-20T18:43:57.217Z,31.70
2017-06-20T18:46:33.422Z,31.70
2017-06-20T18:49:01.045Z,31.60
2017-06-20T18:51:40.423Z,31.40
2017-06-20T18:54:12.669Z,31.20
2017-06-20T18:59:23.777Z,30.90
2017-06-20T19:04:47.972Z,30.30
2017-06-20T19:07:15.820Z,30.30
2017-06-20T19:09:43.394Z,30.20
2017-06-20T19:12:11.187Z,30.10
2017-06-20T19:14:38.725Z,29.90
2017-06-20T19:17:06.266Z,29.80
2017-06-20T19:19:34.111Z,29.70
2017-06-20T19:22:01.655Z,29.60
2017-06-20T19:24:29.983Z,29.40
2017-06-20T19:26:57.827Z,29.30
2017-06-20T19:29:25.373Z,29.30
2017-06-20T19:31:53.684Z,29.10
2017-06-20T19:34:21.580Z,29.00
2017-06-20T19:36:49.123Z,29.00
2017-06-20T19:39:16.667Z,28.90
2017-06-20T19:41:44.579Z,28.80
2017-06-20T19:44:12.117Z,28.70
2017-06-20T19:46:39.641Z,28.70
2017-06-20T19:49:07.591Z,28.60
2017-06-20T19:51:35.908Z,28.40
2017-06-20T19:54:03.462Z,28.40
2017-06-20T19:56:31.336Z,28.30
2017-06-20T19:58:58.878Z,28.20
2017-06-20T20:01:26.419Z,28.20
2017-06-20T20:03:55.046Z,28.10
2017-06-20T20:06:22.587Z,28.00
2017-06-20T20:08:50.173Z,28.00
2017-06-20T20:11:17.980Z,28.00
2017-06-20T20:13:45.551Z,27.90
2017-06-20T20:16:13.894Z,27.80
2017-06-20T20:18:41.783Z,27.70
2017-06-20T20:21:09.330Z,27.70
2017-06-20T20:23:36.876Z,27.70
2017-06-20T20:26:04.714Z,27.60
2017-06-20T20:28:32.247Z,27.50
2017-06-20T20:31:00.584Z,27.40
2017-06-20T20:33:28.456Z,27.40
2017-06-20T20:35:56.005Z,27.30
2017-06-20T20:38:23.545Z,27.30
2017-06-20T20:40:51.355Z,27.20
2017-06-20T20:43:18.978Z,27.20
2017-06-20T20:45:46.562Z,27.10
2017-06-20T20:48:14.373Z,27.00
2017-06-20T20:50:42.676Z,27.00
2017-06-20T20:53:10.248Z,27.00
2017-06-20T20:55:38.129Z,27.00
2017-06-20T20:58:05.666Z,26.90
2017-06-20T21:00:33.217Z,26.90
2017-06-20T21:03:01.121Z,26.80
2017-06-20T21:05:28.678Z,26.80
2017-06-20T21:07:56.216Z,26.80
2017-06-20T21:10:24.211Z,26.80
2017-06-20T21:12:51.750Z,26.70
2017-06-20T21:15:19.291Z,26.70
2017-06-20T21:17:47.178Z,26.60
2017-06-20T21:20:14.745Z,26.50
2017-06-20T21:22:42.297Z,26.50
2017-06-20T21:25:10.148Z,26.50
2017-06-20T21:27:37.679Z,26.50
2017-06-20T21:30:05.220Z,26.40
2017-06-20T21:32:33.097Z,26.40
2017-06-20T21:35:00.631Z,26.40
2017-06-20T21:37:28.184Z,26.30
2017-06-20T21:39:56.078Z,26.30
2017-06-20T21:42:23.614Z,26.30
2017-06-20T21:44:51.175Z,26.20
2017-06-20T21:47:19.061Z,26.20
2017-06-20T21:49:46.589Z,26.20
2017-06-20T21:52:14.142Z,26.10
2017-06-20T21:54:42.138Z,26.10
2017-06-20T21:57:09.676Z,26.00
2017-06-20T21:59:37.210Z,26.00
2017-06-20T22:02:05.056Z,25.90
2017-06-20T22:04:32.599Z,25.80
2017-06-20T22:07:00.120Z,25.70
2017-06-20T22:09:27.937Z,25.70
2017-06-20T22:11:55.466Z,25.60
2017-06-20T22:14:23.008Z,25.60
2017-06-20T22:16:50.855Z,25.50
2017-06-20T22:19:19.156Z,25.40
2017-06-20T22:21:46.702Z,25.40
2017-06-20T22:24:14.582Z,25.40
2017-06-20T22:26:42.103Z,25.30
2017-06-20T22:29:09.640Z,25.20
2017-06-20T22:31:37.606Z,25.20
2017-06-20T22:34:05.126Z,25.10
2017-06-20T22:36:32.662Z,25.10
2017-06-20T22:39:01.305Z,24.90
2017-06-20T22:41:28.840Z,24.90
2017-06-20T22:43:56.367Z,24.90
2017-06-20T22:46:25.033Z,24.70
2017-06-20T22:48:52.554Z,24.70
2017-06-20T22:51:20.078Z,24.60
2017-06-20T22:53:48.661Z,24.60
2017-06-20T22:56:16.982Z,24.50
2017-06-20T22:58:44.515Z,24.50
2017-06-20T23:01:12.356Z,24.40
2017-06-20T23:03:40.669Z,24.30
2017-06-20T23:06:08.213Z,24.30
2017-06-20T23:08:36.979Z,24.30
2017-06-20T23:11:04.503Z,24.20
2017-06-20T23:13:32.050Z,24.20
2017-06-20T23:15:59.872Z,24.10
2017-06-20T23:18:28.195Z,24.00
2017-06-20T23:20:55.741Z,24.10
2017-06-20T23:23:23.550Z,24.00
2017-06-20T23:25:51.074Z,24.00
2017-06-20T23:28:18.590Z,23.90
2017-06-20T23:30:46.427Z,23.90
2017-06-20T23:33:13.961Z,23.80
2017-06-20T23:35:41.480Z,23.70
2017-06-20T23:38:09.315Z,23.70
2017-06-20T23:40:36.852Z,23.70
2017-06-20T23:43:04.384Z,23.60
2017-06-20T23:45:32.960Z,23.50
2017-06-20T23:48:01.264Z,23.50
2017-06-20T23:50:28.793Z,23.40
2017-06-20T23:52:57.432Z,23.40
2017-06-20T23:55:24.950Z,23.30
2017-06-20T23:57:53.240Z,23.30
